Time;durP1;ratioP1;P1;durP2;ratioP2;P2;SDS_P1;SDS_P2;PMS_P1;PMS_P2;Temp;Humidity;BMP_temperature;BMP_pressure;BME280_temperature;BME280_humidity;BME280_pressure;Samples;Min_cycle;Max_cycle;Signal;HPM_P1;HPM_P2
2022/09/18 00:01:33;;;;;;;3.58;1.08;;;11.90;99.90;;;;;;5012773;28;20894;-71
2022/09/18 00:04:01;;;;;;;2.70;1.08;;;12.00;99.90;;;;;;5012506;28;20875;-71
2022/09/18 00:06:30;;;;;;;2.40;0.90;;;12.00;99.90;;;;;;5012398;28;20855;-72
2022/09/18 00:08:57;;;;;;;2.92;0.80;;;11.90;99.90;;;;;;5012838;28;20794;-72
2022/09/18 00:11:25;;;;;;;2.40;0.88;;;11.90;99.90;;;;;;5012568;28;20451;-72
2022/09/18 00:13:51;;;;;;;2.00;0.90;;;11.90;99.90;;;;;;5012360;28;20416;-71
2022/09/18 00:16:20;;;;;;;1.77;0.95;;;11.90;99.90;;;;;;5012614;28;20843;-72
2022/09/18 00:18:46;;;;;;;1.30;0.93;;;11.90;99.90;;;;;;5012401;28;20468;-72
2022/09/18 00:21:15;;;;;;;3.20;1.10;;;11.90;99.90;;;;;;5010546;28;20396;-72
2022/09/18 00:23:41;;;;;;;3.13;1.40;;;11.90;99.90;;;;;;5022270;28;20941;-72
2022/09/18 00:26:08;;;;;;;2.92;1.20;;;11.90;99.90;;;;;;5032350;28;20398;-72
2022/09/18 00:28:35;;;;;;;1.80;0.80;;;11.90;99.90;;;;;;5032655;28;20398;-71
2022/09/18 00:31:09;;;;;;;3.10;1.20;;;11.90;99.90;;;;;;5032094;28;20410;-71
2022/09/18 00:33:36;;;;;;;2.45;0.88;;;11.90;99.90;;;;;;5031567;28;20383;-71
2022/09/18 00:36:04;;;;;;;2.88;1.17;;;11.90;99.90;;;;;;5031971;28;20872;-71
2022/09/18 00:38:33;;;;;;;1.92;1.17;;;11.90;99.90;;;;;;5032101;28;20379;-71
2022/09/18 00:41:00;;;;;;;1.30;0.85;;;11.90;99.90;;;;;;5031646;28;20437;-71
2022/09/18 00:43:32;;;;;;;2.10;1.30;;;11.90;99.90;;;;;;5031629;28;20946;-71
2022/09/18 00:46:16;;;;;;;3.60;1.10;;;12.00;99.90;;;;;;5031885;28;20486;-71
2022/09/18 00:48:49;;;;;;;3.67;1.05;;;11.80;99.90;;;;;;5031410;28;20383;-71
2022/09/18 00:51:16;;;;;;;2.78;1.00;;;11.40;99.90;;;;;;5031448;28;20403;-72
2022/09/18 00:53:49;;;;;;;3.65;1.80;;;11.10;99.90;;;;;;5031267;28;20870;-72
2022/09/18 00:56:15;;;;;;;1.47;1.20;;;11.00;99.90;;;;;;5029868;28;20395;-72
2022/09/18 00:58:41;;;;;;;3.67;1.30;;;10.90;99.90;;;;;;5030102;28;20430;-72
2022/09/18 01:01:07;;;;;;;2.30;1.30;;;10.90;99.90;;;;;;5031100;28;20423;-72
2022/09/18 01:03:34;;;;;;;2.67;1.35;;;10.80;99.90;;;;;;5031046;28;20746;-72
2022/09/18 01:06:26;;;;;;;3.80;1.73;;;10.80;99.90;;;;;;5031382;28;20912;-72
2022/09/18 01:09:01;;;;;;;1.50;1.40;;;10.80;99.90;;;;;;5030922;28;20445;-72
2022/09/18 01:11:41;;;;;;;2.90;1.63;;;10.70;99.90;;;;;;5062852;28;20473;-72
2022/09/18 01:14:25;;;;;;;3.28;1.50;;;10.70;99.90;;;;;;5031118;28;20829;-72
2022/09/18 01:17:00;;;;;;;3.37;1.70;;;10.50;99.90;;;;;;5030924;28;20879;-72
2022/09/18 01:20:10;;;;;;;3.90;1.80;;;10.50;99.90;;;;;;5030842;28;20507;-72
2022/09/18 01:23:10;;;;;;;3.80;1.80;;;10.60;99.90;;;;;;5061254;28;20388;-72
2022/09/18 01:25:54;;;;;;;3.13;1.50;;;10.50;99.90;;;;;;5010937;28;20756;-72
2022/09/18 01:28:37;;;;;;;2.78;1.80;;;10.50;99.90;;;;;;5011121;28;20385;-72
2022/09/18 01:31:12;;;;;;;2.92;1.50;;;10.70;99.90;;;;;;5010814;28;20405;-72
2022/09/18 01:34:08;;;;;;;2.40;1.90;;;10.70;99.90;;;;;;5010896;28;20882;-72
2022/09/18 01:36:37;;;;;;;3.05;1.45;;;10.60;99.90;;;;;;5010606;28;20420;-72
2022/09/18 01:39:17;;;;;;;4.90;1.80;;;10.50;99.90;;;;;;5010888;28;20454;-72
2022/09/18 01:41:49;;;;;;;2.08;1.48;;;10.60;99.90;;;;;;5010682;28;20393;-72
2022/09/18 01:44:19;;;;;;;3.60;1.50;;;10.70;99.90;;;;;;5010412;28;20383;-72
2022/09/18 01:46:45;;;;;;;3.13;1.60;;;10.70;99.90;;;;;;5010831;28;20488;-73
2022/09/18 01:49:16;;;;;;;3.00;1.70;;;10.70;99.90;;;;;;5009303;28;20494;-72
2022/09/18 01:51:54;;;;;;;3.10;1.50;;;10.70;99.90;;;;;;5010627;28;20380;-72
2022/09/18 01:54:23;;;;;;;2.45;1.30;;;10.60;99.90;;;;;;5010508;28;20427;-72
2022/09/18 01:56:58;;;;;;;3.08;1.30;;;10.50;99.90;;;;;;5010294;28;20417;-72
2022/09/18 01:59:31;;;;;;;1.90;1.50;;;10.60;99.90;;;;;;5042324;28;20389;-71
2022/09/18 02:01:59;;;;;;;3.28;1.40;;;10.60;99.90;;;;;;5010388;28;20538;-71
2022/09/18 02:04:28;;;;;;;2.60;1.60;;;10.60;99.90;;;;;;5010359;28;20376;-71
2022/09/18 02:07:06;;;;;;;1.90;1.65;;;10.70;99.90;;;;;;5010569;28;20395;-71
2022/09/18 02:09:32;;;;;;;1.83;1.40;;;10.50;99.90;;;;;;5010340;28;20964;-71
2022/09/18 02:12:01;;;;;;;3.03;1.60;;;10.60;99.90;;;;;;5009961;28;20461;-71
2022/09/18 02:14:33;;;;;;;4.13;1.52;;;10.60;99.90;;;;;;5010235;28;20393;-71
2022/09/18 02:17:08;;;;;;;2.53;1.20;;;10.60;99.90;;;;;;5010099;28;20390;-71
2022/09/18 02:19:40;;;;;;;4.90;1.77;;;10.60;99.90;;;;;;5010211;28;20377;-71
2022/09/18 02:22:12;;;;;;;2.17;1.52;;;10.70;99.90;;;;;;5010243;28;20389;-71
2022/09/18 02:24:40;;;;;;;2.30;1.50;;;10.70;99.90;;;;;;5027362;28;20399;-71
2022/09/18 02:27:08;;;;;;;2.00;1.30;;;10.80;99.90;;;;;;5029841;28;20593;-71
2022/09/18 02:29:34;;;;;;;3.08;1.50;;;10.70;99.90;;;;;;5029928;28;20427;-71
2022/09/18 02:32:01;;;;;;;3.55;1.48;;;10.70;99.90;;;;;;5029753;28;20383;-71
2022/09/18 02:34:27;;;;;;;3.47;1.90;;;10.70;99.90;;;;;;5029527;28;20395;-71
2022/09/18 02:36:59;;;;;;;4.93;1.50;;;10.70;99.90;;;;;;5029693;28;20462;-71
2022/09/18 02:39:29;;;;;;;2.65;1.40;;;10.80;99.90;;;;;;5029830;28;20788;-71
2022/09/18 02:42:38;;;;;;;3.50;1.70;;;10.70;99.90;;;;;;5029744;28;20891;-71
2022/09/18 02:46:05;;;;;;;3.50;1.35;;;10.60;99.90;;;;;;5061621;28;20425;-71
2022/09/18 02:48:53;;;;;;;3.00;1.60;;;10.70;99.90;;;;;;4986070;28;20885;-71
2022/09/18 02:51:45;;;;;;;3.87;1.50;;;10.60;99.90;;;;;;5029332;28;20403;-71
2022/09/18 02:54:31;;;;;;;2.92;1.70;;;10.70;99.90;;;;;;5029480;28;20406;-71
2022/09/18 02:57:03;;;;;;;2.67;1.58;;;10.60;99.90;;;;;;5029027;28;20391;-72
2022/09/18 02:59:39;;;;;;;4.05;1.60;;;10.60;99.90;;;;;;5029513;28;20390;-72
2022/09/18 03:02:06;;;;;;;4.75;1.85;;;10.50;99.90;;;;;;5029472;28;20799;-71
2022/09/18 03:04:31;;;;;;;2.38;1.45;;;10.60;99.90;;;;;;5029119;28;20391;-72
2022/09/18 03:06:57;;;;;;;3.20;1.60;;;10.50;99.90;;;;;;5029580;28;20861;-72
2022/09/18 03:09:23;;;;;;;3.03;1.60;;;10.60;99.90;;;;;;5029442;28;20391;-72
2022/09/18 03:11:49;;;;;;;1.38;1.27;;;10.60;99.90;;;;;;5028904;28;20399;-71
2022/09/18 03:14:15;;;;;;;4.00;1.50;;;10.60;99.90;;;;;;5029307;28;20891;-72
2022/09/18 03:16:40;;;;;;;4.20;1.40;;;10.70;99.90;;;;;;5028131;28;20462;-72
2022/09/18 03:19:06;;;;;;;2.90;1.20;;;10.60;99.90;;;;;;5028899;28;20395;-71
2022/09/18 03:21:32;;;;;;;1.50;1.40;;;10.70;99.90;;;;;;5029324;28;20821;-72
2022/09/18 03:23:57;;;;;;;3.17;1.60;;;10.80;99.90;;;;;;5016870;28;20399;-72
2022/09/18 03:26:23;;;;;;;2.35;1.20;;;10.70;99.90;;;;;;5013071;28;20444;-72
2022/09/18 03:28:48;;;;;;;2.30;1.20;;;10.70;99.90;;;;;;5013356;28;20400;-71
2022/09/18 03:31:14;;;;;;;5.30;1.33;;;10.60;99.90;;;;;;5013408;28;20902;-72
2022/09/18 03:33:40;;;;;;;1.70;1.30;;;10.60;99.90;;;;;;5013078;28;20391;-71
2022/09/18 03:36:07;;;;;;;3.13;1.20;;;10.60;99.90;;;;;;5013659;28;20430;-72
2022/09/18 03:38:33;;;;;;;2.07;1.40;;;10.50;99.90;;;;;;5045315;28;20456;-72
2022/09/18 03:40:58;;;;;;;2.00;1.10;;;10.60;99.90;;;;;;5013096;28;20901;-71
2022/09/18 03:43:25;;;;;;;3.25;1.50;;;10.50;99.90;;;;;;5013064;28;20396;-72
2022/09/18 03:45:51;;;;;;;2.75;1.40;;;10.40;99.90;;;;;;5013527;28;20385;-71
2022/09/18 03:48:18;;;;;;;2.10;1.10;;;10.50;99.90;;;;;;5044938;28;20883;-71
2022/09/18 03:50:44;;;;;;;3.00;1.60;;;10.50;99.90;;;;;;5013352;28;20436;-72
2022/09/18 03:53:10;;;;;;;3.93;1.50;;;10.50;99.90;;;;;;5012891;28;20427;-72
2022/09/18 03:55:36;;;;;;;3.83;1.80;;;10.50;99.90;;;;;;5012945;28;20446;-71
2022/09/18 03:58:02;;;;;;;2.90;1.60;;;10.50;99.90;;;;;;5011923;28;20381;-71
2022/09/18 04:00:28;;;;;;;2.78;1.50;;;10.50;99.90;;;;;;5013402;28;20381;-72
2022/09/18 04:02:53;;;;;;;2.15;1.40;;;10.40;99.90;;;;;;5012640;28;20450;-71
2022/09/18 04:05:19;;;;;;;4.23;1.67;;;10.40;99.90;;;;;;5012976;28;20491;-72
2022/09/18 04:07:46;;;;;;;2.90;1.77;;;10.50;99.90;;;;;;5012946;28;20388;-71
2022/09/18 04:10:13;;;;;;;2.30;1.50;;;10.50;99.90;;;;;;5012577;28;20499;-71
2022/09/18 04:12:38;;;;;;;2.50;1.52;;;10.40;99.90;;;;;;5011330;28;20488;-73
2022/09/18 04:15:04;;;;;;;4.68;2.08;;;10.30;99.90;;;;;;5012586;28;20472;-72
2022/09/18 04:17:30;;;;;;;3.30;2.00;;;10.40;99.90;;;;;;5027094;28;20411;-71
2022/09/18 04:19:55;;;;;;;2.08;1.45;;;10.50;99.90;;;;;;5027442;28;20426;-71
2022/09/18 04:22:21;;;;;;;2.10;1.60;;;10.40;99.90;;;;;;5027995;28;20915;-71
2022/09/18 04:24:49;;;;;;;2.00;1.40;;;10.30;99.90;;;;;;5025429;28;20401;-72
2022/09/18 04:27:14;;;;;;;2.13;1.40;;;10.30;99.90;;;;;;5024591;28;20411;-72
2022/09/18 04:29:40;;;;;;;3.97;1.70;;;10.30;99.90;;;;;;5026637;28;20465;-71
2022/09/18 04:32:06;;;;;;;2.10;1.40;;;10.40;99.90;;;;;;5031169;28;20391;-72
2022/09/18 04:34:32;;;;;;;4.30;1.70;;;10.40;99.90;;;;;;5031430;28;20394;-72
2022/09/18 04:36:57;;;;;;;2.90;1.90;;;10.40;99.90;;;;;;5029859;28;20399;-72
2022/09/18 04:39:23;;;;;;;6.50;2.00;;;10.40;99.90;;;;;;5031526;28;20391;-71
2022/09/18 04:41:49;;;;;;;1.90;1.40;;;10.40;99.90;;;;;;5030520;28;20406;-70
2022/09/18 04:44:14;;;;;;;3.10;1.75;;;10.50;99.90;;;;;;5030847;28;20436;-71
2022/09/18 04:46:40;;;;;;;3.13;1.90;;;10.50;99.90;;;;;;5031024;28;20399;-71
2022/09/18 04:49:06;;;;;;;2.00;1.55;;;10.40;99.90;;;;;;5031262;28;20881;-71
2022/09/18 04:51:31;;;;;;;1.50;1.40;;;10.40;99.90;;;;;;5030776;28;20407;-71
2022/09/18 04:53:57;;;;;;;2.40;1.60;;;10.40;99.90;;;;;;5031067;28;20869;-71
2022/09/18 04:56:22;;;;;;;2.80;1.60;;;10.40;99.90;;;;;;5030026;28;20905;-71
2022/09/18 04:58:48;;;;;;;3.13;1.53;;;10.50;99.90;;;;;;5030524;28;20478;-71
2022/09/18 05:01:13;;;;;;;2.90;1.60;;;10.40;99.90;;;;;;5027621;28;20449;-71
2022/09/18 05:03:39;;;;;;;1.60;1.50;;;10.50;99.90;;;;;;5031606;28;20753;-71
2022/09/18 05:06:05;;;;;;;2.73;1.40;;;10.40;99.90;;;;;;5031779;28;20417;-71
2022/09/18 05:08:33;;;;;;;4.50;1.90;;;10.40;99.90;;;;;;5029612;28;20769;-71
2022/09/18 05:10:59;;;;;;;2.08;1.52;;;10.40;99.90;;;;;;5030291;28;20406;-71
2022/09/18 05:13:24;;;;;;;1.95;1.50;;;10.40;99.90;;;;;;5029878;28;20406;-72
2022/09/18 05:15:54;;;;;;;2.15;1.50;;;10.40;99.90;;;;;;5026067;28;20752;-72
2022/09/18 05:18:19;;;;;;;3.30;1.63;;;10.30;99.90;;;;;;5039750;28;20406;-73
2022/09/18 05:20:45;;;;;;;1.83;1.73;;;10.40;99.90;;;;;;5019426;28;20484;-73
2022/09/18 05:23:10;;;;;;;1.70;1.60;;;10.50;99.90;;;;;;5023619;28;20407;-73
2022/09/18 05:25:36;;;;;;;1.75;1.50;;;10.50;99.90;;;;;;5017521;28;20408;-72
2022/09/18 05:28:02;;;;;;;2.60;1.98;;;10.50;99.90;;;;;;5024555;28;20437;-72
2022/09/18 05:30:30;;;;;;;2.60;1.90;;;10.50;99.90;;;;;;5008062;28;20454;-73
2022/09/18 05:32:57;;;;;;;2.20;1.55;;;10.50;99.90;;;;;;5009064;28;20413;-73
2022/09/18 05:35:24;;;;;;;2.30;1.60;;;10.40;99.90;;;;;;5002601;28;21269;-73
2022/09/18 05:37:55;;;;;;;3.10;1.58;;;10.40;99.90;;;;;;5001674;28;20390;-73
2022/09/18 05:40:25;;;;;;;5.45;1.80;;;10.50;99.90;;;;;;5022499;28;20402;-73
2022/09/18 05:42:51;;;;;;;2.30;1.90;;;10.50;99.90;;;;;;5025736;28;20402;-73
2022/09/18 05:45:18;;;;;;;1.98;1.70;;;10.50;99.90;;;;;;5020930;28;20708;-73
2022/09/18 05:47:53;;;;;;;2.42;1.60;;;10.50;99.90;;;;;;5025290;28;20484;-73
2022/09/18 05:50:20;;;;;;;2.70;1.43;;;10.50;99.90;;;;;;5028404;28;20472;-73
2022/09/18 05:52:45;;;;;;;2.40;1.60;;;10.50;99.90;;;;;;5030117;28;20383;-73
2022/09/18 05:55:11;;;;;;;3.80;1.63;;;10.50;99.90;;;;;;5021058;28;20909;-73
2022/09/18 05:57:37;;;;;;;3.40;1.40;;;10.50;99.90;;;;;;5026659;28;20758;-73
2022/09/18 06:00:03;;;;;;;1.60;1.50;;;10.50;99.90;;;;;;5023380;28;20416;-72
2022/09/18 06:02:29;;;;;;;3.42;1.60;;;10.50;99.90;;;;;;5027087;28;20403;-72
2022/09/18 06:04:54;;;;;;;4.83;2.00;;;10.50;99.90;;;;;;5022714;28;20416;-72
2022/09/18 06:07:20;;;;;;;1.95;1.50;;;10.50;99.90;;;;;;5026734;28;20414;-72
2022/09/18 06:09:46;;;;;;;1.50;1.30;;;10.50;99.90;;;;;;5030194;28;20920;-72
2022/09/18 06:12:12;;;;;;;3.03;1.90;;;10.50;99.90;;;;;;5030203;28;20419;-72
2022/09/18 06:14:37;;;;;;;3.33;1.77;;;10.60;99.90;;;;;;5030692;28;20945;-72
2022/09/18 06:17:03;;;;;;;3.40;1.50;;;10.60;99.90;;;;;;5026562;28;20407;-72
2022/09/18 06:19:28;;;;;;;1.93;1.80;;;10.70;99.90;;;;;;5029121;28;20416;-73
2022/09/18 06:21:54;;;;;;;2.63;1.77;;;10.60;99.90;;;;;;5022085;28;20471;-72
2022/09/18 06:24:20;;;;;;;4.47;1.70;;;10.60;99.90;;;;;;5026441;28;20411;-73
2022/09/18 06:26:48;;;;;;;2.20;1.70;;;10.60;99.90;;;;;;5029596;28;20438;-72
2022/09/18 06:29:13;;;;;;;2.78;1.40;;;10.60;99.90;;;;;;5026781;28;20826;-73
2022/09/18 06:31:39;;;;;;;2.10;1.70;;;10.70;99.90;;;;;;5026990;28;20421;-72
2022/09/18 06:34:04;;;;;;;2.83;1.90;;;10.70;99.90;;;;;;5028741;28;20395;-73
2022/09/18 06:36:30;;;;;;;4.40;1.80;;;10.80;99.90;;;;;;5024508;28;20387;-73
2022/09/18 06:38:55;;;;;;;4.77;3.13;;;10.80;99.90;;;;;;5029184;28;20474;-72
2022/09/18 06:41:23;;;;;;;3.00;2.50;;;10.80;99.90;;;;;;5027805;28;20980;-73
2022/09/18 06:43:49;;;;;;;3.15;2.08;;;10.90;99.90;;;;;;5024698;28;20481;-72
2022/09/18 06:46:14;;;;;;;1.95;1.60;;;10.80;99.90;;;;;;5024330;28;20409;-73
2022/09/18 06:48:40;;;;;;;2.50;2.00;;;10.90;99.90;;;;;;5027824;28;20399;-73
2022/09/18 06:51:05;;;;;;;1.83;1.73;;;11.00;99.90;;;;;;5019603;28;20931;-73
2022/09/18 06:53:31;;;;;;;3.63;1.83;;;11.00;99.90;;;;;;5028751;28;20386;-73
2022/09/18 06:56:02;;;;;;;3.30;2.07;;;11.10;99.90;;;;;;5031821;28;20407;-73
2022/09/18 06:58:27;;;;;;;3.90;1.90;;;11.10;99.90;;;;;;5029232;28;20407;-73
2022/09/18 07:00:53;;;;;;;1.90;1.80;;;11.10;99.90;;;;;;5031987;28;20493;-72
2022/09/18 07:03:19;;;;;;;4.07;1.77;;;11.00;99.90;;;;;;5032237;28;20479;-72
2022/09/18 07:05:44;;;;;;;2.10;1.97;;;11.20;99.90;;;;;;5033956;28;20401;-72
2022/09/18 07:08:11;;;;;;;3.53;1.93;;;11.20;99.90;;;;;;5031902;28;20398;-72
2022/09/18 07:10:37;;;;;;;4.00;2.30;;;11.10;99.90;;;;;;5032274;28;20414;-73
2022/09/18 07:13:03;;;;;;;3.80;2.05;;;11.10;99.90;;;;;;5033235;28;20943;-73
2022/09/18 07:15:30;;;;;;;2.00;1.80;;;11.30;99.90;;;;;;5032256;28;20484;-73
2022/09/18 07:17:57;;;;;;;2.92;2.42;;;11.30;99.90;;;;;;5033557;28;20893;-73
2022/09/18 07:20:22;;;;;;;2.72;1.98;;;11.30;99.90;;;;;;5031680;28;20418;-74
2022/09/18 07:22:58;;;;;;;3.60;2.03;;;11.40;99.90;;;;;;5032277;28;20896;-74
2022/09/18 07:25:25;;;;;;;2.60;2.40;;;11.40;99.90;;;;;;5034430;28;20413;-74
2022/09/18 07:27:51;;;;;;;2.90;1.90;;;11.40;99.90;;;;;;5033214;28;20479;-73
2022/09/18 07:30:18;;;;;;;2.10;1.93;;;11.60;99.90;;;;;;5033507;28;20577;-74
2022/09/18 07:32:44;;;;;;;3.00;1.98;;;11.70;99.90;;;;;;5031051;28;20382;-74
2022/09/18 07:35:10;;;;;;;2.20;1.50;;;11.60;99.90;;;;;;5041737;28;20745;-72
2022/09/18 07:37:36;;;;;;;4.28;1.27;;;11.60;99.90;;;;;;5033150;28;20379;-72
2022/09/18 07:40:02;;;;;;;3.10;1.00;;;11.60;99.90;;;;;;5046851;28;20391;-73
2022/09/18 07:42:28;;;;;;;1.48;0.85;;;11.80;99.90;;;;;;5031444;28;20692;-73
2022/09/18 07:44:54;;;;;;;3.85;1.05;;;12.00;99.90;;;;;;5032823;28;20442;-72
2022/09/18 07:47:20;;;;;;;1.02;0.60;;;12.00;99.90;;;;;;5032529;28;20406;-72
2022/09/18 07:49:45;;;;;;;1.30;0.70;;;12.10;99.90;;;;;;5031062;28;20506;-72
2022/09/18 07:52:11;;;;;;;1.57;1.00;;;12.00;99.90;;;;;;5031601;28;20482;-72
2022/09/18 07:54:37;;;;;;;2.03;0.90;;;12.10;99.90;;;;;;5032108;28;20825;-72
2022/09/18 07:57:03;;;;;;;0.98;0.68;;;12.00;99.90;;;;;;5038018;28;20402;-72
2022/09/18 07:59:29;;;;;;;1.30;0.80;;;12.10;99.90;;;;;;5032587;28;20494;-72
2022/09/18 08:01:54;;;;;;;1.20;0.87;;;12.00;99.90;;;;;;5032844;28;20466;-72
2022/09/18 08:04:23;;;;;;;2.75;1.17;;;12.10;99.90;;;;;;5032338;28;20833;-72
2022/09/18 08:06:52;;;;;;;1.35;0.90;;;12.00;99.90;;;;;;5032784;28;20415;-72
2022/09/18 08:09:18;;;;;;;1.17;1.00;;;12.20;99.90;;;;;;5032789;28;20398;-72
2022/09/18 08:11:44;;;;;;;2.70;0.90;;;12.30;99.90;;;;;;5031194;28;20411;-72
2022/09/18 08:14:10;;;;;;;4.88;1.08;;;12.30;99.90;;;;;;5051356;28;20384;-72
2022/09/18 08:16:35;;;;;;;2.07;0.90;;;12.40;99.90;;;;;;5032754;28;20395;-72
2022/09/18 08:19:01;;;;;;;2.70;1.20;;;12.30;99.90;;;;;;5032391;28;20762;-72
2022/09/18 08:21:29;;;;;;;1.77;0.85;;;12.30;99.90;;;;;;5032499;28;20417;-72
2022/09/18 08:23:55;;;;;;;0.80;0.70;;;12.30;99.90;;;;;;5020271;28;20392;-72
2022/09/18 08:26:21;;;;;;;2.22;0.90;;;12.40;99.90;;;;;;5012688;28;20385;-72
2022/09/18 08:28:47;;;;;;;1.90;0.80;;;12.40;99.90;;;;;;5013739;28;20817;-73
2022/09/18 08:31:12;;;;;;;1.30;0.90;;;12.40;99.90;;;;;;5032181;28;20877;-73
2022/09/18 08:33:38;;;;;;;1.67;1.00;;;12.50;99.90;;;;;;5031666;28;20391;-74
2022/09/18 08:36:04;;;;;;;1.30;0.90;;;12.60;99.90;;;;;;5031401;28;20742;-74
2022/09/18 08:38:30;;;;;;;3.20;1.17;;;12.60;99.90;;;;;;5035112;28;20522;-74
2022/09/18 08:41:29;;;;;;;1.40;0.85;;;12.70;99.90;;;;;;5031382;28;20861;-74
2022/09/18 08:44:06;;;;;;;2.53;0.80;;;12.90;99.90;;;;;;5031875;28;20429;-73
2022/09/18 08:46:48;;;;;;;2.78;1.40;;;12.90;99.90;;;;;;5012345;28;20472;-73
2022/09/18 08:49:22;;;;;;;1.80;0.80;;;12.80;99.90;;;;;;5028286;28;20403;-74
2022/09/18 08:52:17;;;;;;;2.20;1.17;;;12.90;99.90;;;;;;5031936;28;20430;-73
2022/09/18 08:54:48;;;;;;;2.70;0.90;;;13.00;99.90;;;;;;5031089;28;20794;-73
2022/09/18 08:57:19;;;;;;;3.30;0.90;;;12.90;99.90;;;;;;5031747;28;20741;-73
2022/09/18 09:00:00;;;;;;;1.70;0.80;;;13.00;99.90;;;;;;5041948;28;20396;-73
2022/09/18 09:03:00;;;;;;;1.40;0.88;;;12.90;99.90;;;;;;5017588;28;20395;-73
2022/09/18 09:05:35;;;;;;;1.88;0.90;;;13.00;99.90;;;;;;5012945;28;20397;-73
2022/09/18 09:08:33;;;;;;;1.80;0.90;;;13.10;99.90;;;;;;5033094;28;20400;-71
2022/09/18 09:11:20;;;;;;;1.88;0.73;;;13.30;99.90;;;;;;5027965;28;20514;-71
2022/09/18 09:14:15;;;;;;;1.27;0.80;;;13.50;99.90;;;;;;5037090;28;20438;-74
2022/09/18 09:16:43;;;;;;;1.17;0.90;;;13.60;99.90;;;;;;5034252;28;20403;-72
2022/09/18 09:19:14;;;;;;;0.90;0.70;;;13.60;99.90;;;;;;5031248;28;20399;-71
2022/09/18 09:21:48;;;;;;;1.40;0.67;;;13.60;99.90;;;;;;5035345;28;20526;-72
2022/09/18 09:24:39;;;;;;;1.75;0.73;;;13.70;99.90;;;;;;5029769;28;20419;-72
2022/09/18 09:27:33;;;;;;;2.13;0.75;;;13.70;99.90;;;;;;5034117;28;20417;-71
2022/09/18 09:30:12;;;;;;;1.52;0.90;;;13.70;99.90;;;;;;5026976;28;20989;-72
2022/09/18 09:33:17;;;;;;;1.00;0.85;;;14.00;99.90;;;;;;5030149;28;20893;-72
2022/09/18 09:35:46;;;;;;;1.93;0.80;;;14.00;99.90;;;;;;5027961;28;20948;-73
2022/09/18 09:38:31;;;;;;;3.58;0.98;;;14.10;99.90;;;;;;5030202;28;20409;-72
2022/09/18 09:41:00;;;;;;;2.58;0.98;;;14.10;99.90;;;;;;5035895;28;20413;-73
2022/09/18 09:43:33;;;;;;;1.10;0.90;;;14.10;99.90;;;;;;5030394;28;20926;-73
2022/09/18 09:46:04;;;;;;;1.08;0.70;;;14.30;99.90;;;;;;5061952;28;20896;-73
2022/09/18 09:48:42;;;;;;;1.25;0.98;;;14.30;99.90;;;;;;5030209;28;20876;-75
2022/09/18 09:51:20;;;;;;;2.10;0.70;;;14.40;99.90;;;;;;5031983;28;20533;-73
2022/09/18 09:53:46;;;;;;;1.42;0.80;;;14.30;99.90;;;;;;5038860;28;20846;-74
2022/09/18 09:56:25;;;;;;;2.80;0.80;;;14.20;99.90;;;;;;5052605;28;20439;-73
2022/09/18 09:59:28;;;;;;;3.23;1.50;;;14.30;99.90;;;;;;5046956;28;20415;-72
2022/09/18 10:02:08;;;;;;;1.05;0.75;;;14.60;99.90;;;;;;5041095;28;20911;-73
2022/09/18 10:04:54;;;;;;;1.45;0.90;;;14.70;99.90;;;;;;5026614;28;20407;-73
2022/09/18 10:07:27;;;;;;;1.27;0.70;;;14.70;99.90;;;;;;5031767;28;20410;-73
2022/09/18 10:10:01;;;;;;;3.53;1.00;;;14.90;99.90;;;;;;5029968;28;20407;-72
2022/09/18 10:12:43;;;;;;;2.20;0.70;;;14.80;99.90;;;;;;5032126;28;20435;-73
2022/09/18 10:15:15;;;;;;;1.50;0.80;;;14.90;99.90;;;;;;5030707;28;20430;-74
2022/09/18 10:17:42;;;;;;;1.60;0.70;;;14.70;99.90;;;;;;5032121;28;20452;-73
2022/09/18 10:20:16;;;;;;;1.50;0.70;;;14.90;99.90;;;;;;5033491;28;20437;-73
2022/09/18 10:22:42;;;;;;;1.30;0.60;;;14.90;99.90;;;;;;5033286;28;20387;-73
2022/09/18 10:25:42;;;;;;;1.07;0.67;;;15.10;99.90;;;;;;5034138;28;20391;-73
2022/09/18 10:28:14;;;;;;;1.63;0.70;;;15.20;98.40;;;;;;5023696;28;20482;-73
2022/09/18 10:31:09;;;;;;;1.85;0.75;;;15.30;96.50;;;;;;5033469;28;20410;-73
2022/09/18 10:33:44;;;;;;;2.15;0.60;;;15.40;97.40;;;;;;5031544;28;20399;-73
2022/09/18 10:36:45;;;;;;;3.90;0.90;;;15.70;94.20;;;;;;5034743;28;20711;-73
2022/09/18 10:39:28;;;;;;;3.15;0.90;;;15.50;98.50;;;;;;4973693;28;20408;-73
2022/09/18 10:42:02;;;;;;;2.63;1.10;;;15.30;94.40;;;;;;5029338;28;20393;-73
2022/09/18 10:44:35;;;;;;;3.65;1.10;;;15.30;96.10;;;;;;5031298;28;20407;-72
2022/09/18 10:47:08;;;;;;;1.90;0.80;;;15.50;96.80;;;;;;5032469;28;20375;-73
2022/09/18 10:49:48;;;;;;;2.53;0.60;;;15.50;95.90;;;;;;5032588;28;20406;-72
2022/09/18 10:52:37;;;;;;;1.40;0.80;;;15.70;95.30;;;;;;5032604;28;20437;-73
2022/09/18 10:55:06;;;;;;;0.60;0.50;;;15.60;97.10;;;;;;5034610;28;20388;-73
2022/09/18 10:57:46;;;;;;;1.40;0.77;;;15.70;99.90;;;;;;5028692;28;20422;-72
2022/09/18 11:00:12;;;;;;;3.20;0.60;;;16.00;96.10;;;;;;5020389;28;20395;-72
2022/09/18 11:02:52;;;;;;;1.40;0.90;;;16.30;96.00;;;;;;5023708;28;20453;-72
2022/09/18 11:05:26;;;;;;;1.87;0.80;;;16.30;95.30;;;;;;5011999;28;20419;-71
2022/09/18 11:07:54;;;;;;;2.30;0.60;;;16.10;94.20;;;;;;5029469;28;20406;-71
2022/09/18 11:10:22;;;;;;;1.55;0.80;;;16.40;95.50;;;;;;5026591;28;20909;-72
2022/09/18 11:12:57;;;;;;;1.45;0.60;;;16.30;94.60;;;;;;5040124;23;20569;-70
2022/09/18 11:15:27;;;;;;;1.80;0.70;;;16.20;94.20;;;;;;5029023;28;20382;-71
2022/09/18 11:17:55;;;;;;;1.50;0.63;;;16.30;92.20;;;;;;5030122;28;20380;-70
2022/09/18 11:20:26;;;;;;;1.52;0.70;;;16.50;92.10;;;;;;5030068;28;20879;-70
2022/09/18 11:22:52;;;;;;;0.85;0.70;;;16.90;91.60;;;;;;5029485;28;20757;-71
2022/09/18 11:25:25;;;;;;;2.33;0.70;;;17.90;88.60;;;;;;5030034;28;20423;-72
2022/09/18 11:27:54;;;;;;;2.15;0.60;;;18.30;81.90;;;;;;5030104;28;20391;-70
2022/09/18 11:30:20;;;;;;;2.40;0.65;;;17.40;87.90;;;;;;5028532;28;20430;-71
2022/09/18 11:32:49;;;;;;;1.42;0.80;;;16.80;90.80;;;;;;5029577;28;20753;-70
2022/09/18 11:35:17;;;;;;;1.17;0.70;;;16.50;92.90;;;;;;5029934;28;20383;-70
2022/09/18 11:37:48;;;;;;;1.40;0.80;;;16.60;91.30;;;;;;5029961;28;20401;-71
2022/09/18 11:40:20;;;;;;;1.80;0.70;;;16.60;91.00;;;;;;5025134;28;20404;-70
2022/09/18 11:42:49;;;;;;;1.80;0.70;;;16.50;93.60;;;;;;5025032;28;20407;-70
2022/09/18 11:45:33;;;;;;;1.70;0.80;;;16.90;89.90;;;;;;5030074;28;20383;-69
2022/09/18 11:48:22;;;;;;;2.03;0.70;;;17.00;89.70;;;;;;5033671;28;20800;-70
2022/09/18 11:50:53;;;;;;;1.90;0.70;;;17.40;87.20;;;;;;5012780;28;20494;-70
2022/09/18 11:53:26;;;;;;;1.10;0.50;;;17.60;86.70;;;;;;5032168;28;20893;-72
2022/09/18 11:56:16;;;;;;;2.05;0.80;;;17.40;86.30;;;;;;5032304;28;20387;-71
2022/09/18 11:58:52;;;;;;;2.60;0.80;;;17.80;86.20;;;;;;5024238;28;20387;-71
2022/09/18 12:01:32;;;;;;;2.80;0.70;;;17.50;86.20;;;;;;5033198;28;20433;-71
2022/09/18 12:04:17;;;;;;;1.60;1.08;;;17.60;82.80;;;;;;5026618;28;20395;-70
2022/09/18 12:07:05;;;;;;;1.90;0.80;;;17.20;90.20;;;;;;5004025;28;20403;-72
2022/09/18 12:09:51;;;;;;;0.80;0.70;;;17.20;89.60;;;;;;5021174;28;20399;-72
2022/09/18 12:12:26;;;;;;;1.83;0.65;;;17.10;84.90;;;;;;5030501;28;20794;-71
2022/09/18 12:15:03;;;;;;;1.20;0.60;;;16.90;88.70;;;;;;5026607;28;20431;-70
2022/09/18 12:17:55;;;;;;;1.20;0.70;;;17.20;86.20;;;;;;5024716;28;20454;-71
2022/09/18 12:20:26;;;;;;;2.22;0.80;;;17.20;88.10;;;;;;5014909;28;20415;-72
2022/09/18 12:22:56;;;;;;;4.60;0.83;;;17.00;86.10;;;;;;5016269;28;20387;-71
2022/09/18 12:25:40;;;;;;;1.30;0.70;;;16.70;90.60;;;;;;5032917;28;20441;-70
2022/09/18 12:28:28;;;;;;;1.50;0.70;;;16.60;91.40;;;;;;5032838;28;20383;-71
2022/09/18 12:31:29;;;;;;;0.70;0.60;;;17.40;92.60;;;;;;5032556;28;20453;-72
2022/09/18 12:34:20;;;;;;;0.95;0.60;;;18.00;86.30;;;;;;5032367;28;20434;-70
2022/09/18 12:37:11;;;;;;;1.37;0.93;;;18.10;82.20;;;;;;5032920;28;20470;-70
2022/09/18 12:40:01;;;;;;;2.20;1.00;;;18.00;81.50;;;;;;5032538;28;20470;-70
2022/09/18 12:42:47;;;;;;;1.15;0.60;;;18.40;79.00;;;;;;5032105;28;20482;-70
2022/09/18 12:45:34;;;;;;;1.00;0.60;;;18.30;73.20;;;;;;5032310;28;20387;-71
2022/09/18 12:48:34;;;;;;;1.50;0.60;;;17.70;70.80;;;;;;5032615;28;20437;-71
2022/09/18 12:51:06;;;;;;;2.40;0.80;;;17.70;72.30;;;;;;5032152;28;20403;-71
2022/09/18 12:53:32;;;;;;;1.45;0.95;;;17.30;74.80;;;;;;5031884;28;20390;-73
2022/09/18 12:56:25;;;;;;;1.70;0.60;;;17.30;73.60;;;;;;5031846;28;20393;-70
2022/09/18 12:59:03;;;;;;;1.70;0.70;;;17.70;75.10;;;;;;5032209;28;20441;-68
2022/09/18 13:01:28;;;;;;;2.08;0.82;;;18.30;77.30;;;;;;5030028;28;20407;-71
2022/09/18 13:04:04;;;;;;;1.70;0.70;;;18.20;76.20;;;;;;5027924;28;20411;-70
2022/09/18 13:06:40;;;;;;;2.05;0.80;;;18.00;78.20;;;;;;5029041;28;20411;-70
2022/09/18 13:09:18;;;;;;;1.60;0.90;;;18.10;78.30;;;;;;5007635;28;20403;-70
2022/09/18 13:11:52;;;;;;;3.53;1.02;;;18.20;81.50;;;;;;5013448;28;20421;-69
2022/09/18 13:14:38;;;;;;;2.60;0.70;;;18.30;79.90;;;;;;5031220;28;20394;-69